sensor_id;sensor_type;location;lat;lon;timestamp;temperature;humidity
75719;DHT22;64340;48.534;-3.036;2023-04-06T00:00:23;13.00;63.70
75719;DHT22;64340;48.534;-3.036;2023-04-06T00:02:48;13.00;63.80
75719;DHT22;64340;48.534;-3.036;2023-04-06T00:05:14;13.00;63.80
75719;DHT22;64340;48.534;-3.036;2023-04-06T00:07:40;13.00;63.80
75719;DHT22;64340;48.534;-3.036;2023-04-06T00:10:06;13.00;63.80
75719;DHT22;64340;48.534;-3.036;2023-04-06T00:12:31;13.00;63.90
75719;DHT22;64340;48.534;-3.036;2023-04-06T00:14:57;13.00;63.90
75719;DHT22;64340;48.534;-3.036;2023-04-06T00:17:23;13.00;63.90
75719;DHT22;64340;48.534;-3.036;2023-04-06T00:19:48;13.00;63.90
75719;DHT22;64340;48.534;-3.036;2023-04-06T00:22:14;13.00;63.90
75719;DHT22;64340;48.534;-3.036;2023-04-06T00:24:39;13.00;64.00
75719;DHT22;64340;48.534;-3.036;2023-04-06T00:27:05;13.00;64.00
75719;DHT22;64340;48.534;-3.036;2023-04-06T00:29:31;13.00;64.00
75719;DHT22;64340;48.534;-3.036;2023-04-06T00:31:57;13.00;64.00
75719;DHT22;64340;48.534;-3.036;2023-04-06T00:34:22;13.00;64.10
75719;DHT22;64340;48.534;-3.036;2023-04-06T00:36:48;13.00;64.10
75719;DHT22;64340;48.534;-3.036;2023-04-06T00:39:13;13.00;64.10
75719;DHT22;64340;48.534;-3.036;2023-04-06T00:41:39;13.00;64.10
75719;DHT22;64340;48.534;-3.036;2023-04-06T00:44:09;13.00;64.10
75719;DHT22;64340;48.534;-3.036;2023-04-06T00:46:35;13.00;64.20
75719;DHT22;64340;48.534;-3.036;2023-04-06T00:49:01;13.00;64.30
75719;DHT22;64340;48.534;-3.036;2023-04-06T00:51:27;12.90;64.30
75719;DHT22;64340;48.534;-3.036;2023-04-06T00:53:53;13.00;64.30
75719;DHT22;64340;48.534;-3.036;2023-04-06T00:56:19;13.00;64.30
75719;DHT22;64340;48.534;-3.036;2023-04-06T00:58:46;13.00;64.50
75719;DHT22;64340;48.534;-3.036;2023-04-06T01:01:12;12.90;64.40
75719;DHT22;64340;48.534;-3.036;2023-04-06T01:03:37;12.90;64.50
75719;DHT22;64340;48.534;-3.036;2023-04-06T01:06:03;12.90;64.40
75719;DHT22;64340;48.534;-3.036;2023-04-06T01:08:29;12.90;64.50
75719;DHT22;64340;48.534;-3.036;2023-04-06T01:10:55;12.90;64.40
75719;DHT22;64340;48.534;-3.036;2023-04-06T01:13:20;12.90;64.50
75719;DHT22;64340;48.534;-3.036;2023-04-06T01:15:46;12.90;64.60
75719;DHT22;64340;48.534;-3.036;2023-04-06T01:18:12;12.90;64.70
75719;DHT22;64340;48.534;-3.036;2023-04-06T01:20:38;12.90;64.70
75719;DHT22;64340;48.534;-3.036;2023-04-06T01:23:04;12.90;64.60
75719;DHT22;64340;48.534;-3.036;2023-04-06T01:25:29;12.90;64.70
75719;DHT22;64340;48.534;-3.036;2023-04-06T01:27:55;12.90;64.70
75719;DHT22;64340;48.534;-3.036;2023-04-06T01:30:20;12.90;64.70
75719;DHT22;64340;48.534;-3.036;2023-04-06T01:32:46;12.90;64.70
75719;DHT22;64340;48.534;-3.036;2023-04-06T01:35:12;12.90;64.80
75719;DHT22;64340;48.534;-3.036;2023-04-06T01:37:37;12.90;64.70
75719;DHT22;64340;48.534;-3.036;2023-04-06T01:40:03;12.90;64.80
75719;DHT22;64340;48.534;-3.036;2023-04-06T01:42:29;12.90;64.80
75719;DHT22;64340;48.534;-3.036;2023-04-06T01:44:55;12.90;64.90
75719;DHT22;64340;48.534;-3.036;2023-04-06T01:47:21;12.90;64.90
75719;DHT22;64340;48.534;-3.036;2023-04-06T01:49:46;12.90;64.90
75719;DHT22;64340;48.534;-3.036;2023-04-06T01:52:12;12.90;65.00
75719;DHT22;64340;48.534;-3.036;2023-04-06T01:54:38;12.80;65.00
75719;DHT22;64340;48.534;-3.036;2023-04-06T01:57:03;12.80;65.00
75719;DHT22;64340;48.534;-3.036;2023-04-06T01:59:29;12.90;65.00
75719;DHT22;64340;48.534;-3.036;2023-04-06T02:01:55;12.90;65.00
75719;DHT22;64340;48.534;-3.036;2023-04-06T02:04:20;12.80;65.00
75719;DHT22;64340;48.534;-3.036;2023-04-06T02:06:46;12.80;65.10
75719;DHT22;64340;48.534;-3.036;2023-04-06T02:09:12;12.90;65.10
75719;DHT22;64340;48.534;-3.036;2023-04-06T02:11:37;12.80;65.10
75719;DHT22;64340;48.534;-3.036;2023-04-06T02:14:03;12.80;65.20
75719;DHT22;64340;48.534;-3.036;2023-04-06T02:16:29;12.80;65.20
75719;DHT22;64340;48.534;-3.036;2023-04-06T02:18:54;12.80;65.20
75719;DHT22;64340;48.534;-3.036;2023-04-06T02:21:20;12.80;65.30
75719;DHT22;64340;48.534;-3.036;2023-04-06T02:23:46;12.80;65.30
75719;DHT22;64340;48.534;-3.036;2023-04-06T02:26:12;12.80;65.20
75719;DHT22;64340;48.534;-3.036;2023-04-06T02:28:38;12.80;65.40
75719;DHT22;64340;48.534;-3.036;2023-04-06T02:31:04;12.80;65.40
75719;DHT22;64340;48.534;-3.036;2023-04-06T02:33:29;12.80;65.40
75719;DHT22;64340;48.534;-3.036;2023-04-06T02:35:55;12.80;65.40
75719;DHT22;64340;48.534;-3.036;2023-04-06T02:38:21;12.80;65.40
75719;DHT22;64340;48.534;-3.036;2023-04-06T02:40:46;12.80;65.40
75719;DHT22;64340;48.534;-3.036;2023-04-06T02:43:12;12.80;65.60
75719;DHT22;64340;48.534;-3.036;2023-04-06T02:45:37;12.80;65.70
75719;DHT22;64340;48.534;-3.036;2023-04-06T02:48:03;12.80;65.80
75719;DHT22;64340;48.534;-3.036;2023-04-06T02:50:29;12.80;66.00
75719;DHT22;64340;48.534;-3.036;2023-04-06T02:52:55;12.80;66.00
75719;DHT22;64340;48.534;-3.036;2023-04-06T02:55:20;12.80;65.90
75719;DHT22;64340;48.534;-3.036;2023-04-06T02:57:46;12.80;66.10
75719;DHT22;64340;48.534;-3.036;2023-04-06T03:00:12;12.80;66.00
75719;DHT22;64340;48.534;-3.036;2023-04-06T03:02:38;12.80;66.10
75719;DHT22;64340;48.534;-3.036;2023-04-06T03:05:03;12.80;66.10
75719;DHT22;64340;48.534;-3.036;2023-04-06T03:07:29;12.80;66.20
75719;DHT22;64340;48.534;-3.036;2023-04-06T03:09:55;12.80;66.10
75719;DHT22;64340;48.534;-3.036;2023-04-06T03:12:20;12.80;66.30
75719;DHT22;64340;48.534;-3.036;2023-04-06T03:14:46;12.80;66.30
75719;DHT22;64340;48.534;-3.036;2023-04-06T03:17:12;12.80;66.20
75719;DHT22;64340;48.534;-3.036;2023-04-06T03:19:37;12.80;66.40
75719;DHT22;64340;48.534;-3.036;2023-04-06T03:22:03;12.80;66.40
75719;DHT22;64340;48.534;-3.036;2023-04-06T03:24:29;12.80;66.50
75719;DHT22;64340;48.534;-3.036;2023-04-06T03:26:54;12.80;66.50
75719;DHT22;64340;48.534;-3.036;2023-04-06T03:29:20;12.80;66.60
75719;DHT22;64340;48.534;-3.036;2023-04-06T03:31:46;12.80;66.60
75719;DHT22;64340;48.534;-3.036;2023-04-06T03:34:11;12.70;66.70
75719;DHT22;64340;48.534;-3.036;2023-04-06T03:36:37;12.80;66.80
75719;DHT22;64340;48.534;-3.036;2023-04-06T03:39:03;12.80;66.70
75719;DHT22;64340;48.534;-3.036;2023-04-06T03:41:28;12.80;66.70
75719;DHT22;64340;48.534;-3.036;2023-04-06T03:43:54;12.80;66.80
75719;DHT22;64340;48.534;-3.036;2023-04-06T03:46:19;12.80;66.80
75719;DHT22;64340;48.534;-3.036;2023-04-06T03:48:47;12.80;66.80
75719;DHT22;64340;48.534;-3.036;2023-04-06T03:51:13;12.80;66.70
75719;DHT22;64340;48.534;-3.036;2023-04-06T03:53:39;12.80;66.70
75719;DHT22;64340;48.534;-3.036;2023-04-06T03:56:04;12.80;66.90
75719;DHT22;64340;48.534;-3.036;2023-04-06T03:58:30;12.80;66.90
75719;DHT22;64340;48.534;-3.036;2023-04-06T04:00:56;12.80;66.90
75719;DHT22;64340;48.534;-3.036;2023-04-06T04:03:21;12.80;66.80
75719;DHT22;64340;48.534;-3.036;2023-04-06T04:05:49;12.80;66.80
75719;DHT22;64340;48.534;-3.036;2023-04-06T04:08:15;12.80;66.90
75719;DHT22;64340;48.534;-3.036;2023-04-06T04:10:40;12.80;66.80
75719;DHT22;64340;48.534;-3.036;2023-04-06T04:13:06;12.80;67.00
75719;DHT22;64340;48.534;-3.036;2023-04-06T04:15:32;12.80;67.00
75719;DHT22;64340;48.534;-3.036;2023-04-06T04:17:57;12.80;67.00
75719;DHT22;64340;48.534;-3.036;2023-04-06T04:20:23;12.70;67.00
75719;DHT22;64340;48.534;-3.036;2023-04-06T04:22:49;12.80;67.00
75719;DHT22;64340;48.534;-3.036;2023-04-06T04:25:14;12.80;67.10
75719;DHT22;64340;48.534;-3.036;2023-04-06T04:27:40;12.80;67.20
75719;DHT22;64340;48.534;-3.036;2023-04-06T04:30:05;12.80;67.20
75719;DHT22;64340;48.534;-3.036;2023-04-06T04:32:31;12.70;67.20
75719;DHT22;64340;48.534;-3.036;2023-04-06T04:34:57;12.80;67.30
75719;DHT22;64340;48.534;-3.036;2023-04-06T04:37:22;12.90;67.30
75719;DHT22;64340;48.534;-3.036;2023-04-06T04:39:48;12.90;67.30
75719;DHT22;64340;48.534;-3.036;2023-04-06T04:42:14;13.00;67.20
75719;DHT22;64340;48.534;-3.036;2023-04-06T04:44:39;13.00;67.30
75719;DHT22;64340;48.534;-3.036;2023-04-06T04:47:05;13.00;67.20
75719;DHT22;64340;48.534;-3.036;2023-04-06T04:49:31;13.00;67.30
75719;DHT22;64340;48.534;-3.036;2023-04-06T04:51:56;13.10;67.70
75719;DHT22;64340;48.534;-3.036;2023-04-06T04:54:22;13.10;67.20
75719;DHT22;64340;48.534;-3.036;2023-04-06T04:56:48;13.10;67.20
75719;DHT22;64340;48.534;-3.036;2023-04-06T04:59:13;13.00;67.40
75719;DHT22;64340;48.534;-3.036;2023-04-06T05:01:39;13.00;67.50
75719;DHT22;64340;48.534;-3.036;2023-04-06T05:04:05;13.10;67.90
75719;DHT22;64340;48.534;-3.036;2023-04-06T05:06:30;13.10;67.90
75719;DHT22;64340;48.534;-3.036;2023-04-06T05:08:56;13.10;67.70
75719;DHT22;64340;48.534;-3.036;2023-04-06T05:11:22;13.10;67.70
75719;DHT22;64340;48.534;-3.036;2023-04-06T05:13:47;13.10;67.80
75719;DHT22;64340;48.534;-3.036;2023-04-06T05:16:13;13.10;67.90
75719;DHT22;64340;48.534;-3.036;2023-04-06T05:18:38;13.10;68.00
75719;DHT22;64340;48.534;-3.036;2023-04-06T05:21:04;13.10;68.00
75719;DHT22;64340;48.534;-3.036;2023-04-06T05:23:30;13.10;67.90
75719;DHT22;64340;48.534;-3.036;2023-04-06T05:25:56;13.10;67.80
75719;DHT22;64340;48.534;-3.036;2023-04-06T05:28:21;13.10;67.80
75719;DHT22;64340;48.534;-3.036;2023-04-06T05:30:47;13.10;67.80
75719;DHT22;64340;48.534;-3.036;2023-04-06T05:33:13;13.10;67.70
75719;DHT22;64340;48.534;-3.036;2023-04-06T05:35:39;13.10;67.80
75719;DHT22;64340;48.534;-3.036;2023-04-06T05:38:07;13.10;67.80
75719;DHT22;64340;48.534;-3.036;2023-04-06T05:40:32;13.10;67.90
75719;DHT22;64340;48.534;-3.036;2023-04-06T05:42:58;13.10;68.80
75719;DHT22;64340;48.534;-3.036;2023-04-06T05:45:24;13.10;70.40
75719;DHT22;64340;48.534;-3.036;2023-04-06T05:47:49;13.10;71.70
75719;DHT22;64340;48.534;-3.036;2023-04-06T05:50:15;13.10;70.20
75719;DHT22;64340;48.534;-3.036;2023-04-06T05:52:41;13.10;69.80
75719;DHT22;64340;48.534;-3.036;2023-04-06T05:55:08;13.10;71.20
75719;DHT22;64340;48.534;-3.036;2023-04-06T05:57:34;13.10;70.60
75719;DHT22;64340;48.534;-3.036;2023-04-06T06:00:00;13.10;70.70
75719;DHT22;64340;48.534;-3.036;2023-04-06T06:02:25;13.10;70.80
75719;DHT22;64340;48.534;-3.036;2023-04-06T06:04:51;13.10;71.20
75719;DHT22;64340;48.534;-3.036;2023-04-06T06:07:17;13.10;71.10
75719;DHT22;64340;48.534;-3.036;2023-04-06T06:09:43;13.10;70.80
75719;DHT22;64340;48.534;-3.036;2023-04-06T06:12:08;13.10;70.70
75719;DHT22;64340;48.534;-3.036;2023-04-06T06:14:34;13.10;70.50
75719;DHT22;64340;48.534;-3.036;2023-04-06T06:17:00;13.10;70.50
75719;DHT22;64340;48.534;-3.036;2023-04-06T06:19:25;13.10;70.60
75719;DHT22;64340;48.534;-3.036;2023-04-06T06:21:51;13.10;70.50
75719;DHT22;64340;48.534;-3.036;2023-04-06T06:24:17;13.10;70.30
75719;DHT22;64340;48.534;-3.036;2023-04-06T06:26:42;13.10;70.10
75719;DHT22;64340;48.534;-3.036;2023-04-06T06:29:08;13.10;70.20
75719;DHT22;64340;48.534;-3.036;2023-04-06T06:31:34;13.10;70.00
75719;DHT22;64340;48.534;-3.036;2023-04-06T06:34:00;13.10;70.10
75719;DHT22;64340;48.534;-3.036;2023-04-06T06:36:27;13.00;70.10
75719;DHT22;64340;48.534;-3.036;2023-04-06T06:38:53;13.00;70.00
75719;DHT22;64340;48.534;-3.036;2023-04-06T06:41:18;13.10;70.00
75719;DHT22;64340;48.534;-3.036;2023-04-06T06:43:44;13.00;70.00
75719;DHT22;64340;48.534;-3.036;2023-04-06T06:46:10;13.00;70.00
75719;DHT22;64340;48.534;-3.036;2023-04-06T06:48:35;13.00;70.00
75719;DHT22;64340;48.534;-3.036;2023-04-06T06:51:01;13.00;70.00
75719;DHT22;64340;48.534;-3.036;2023-04-06T06:53:26;13.00;70.00
75719;DHT22;64340;48.534;-3.036;2023-04-06T06:55:52;13.10;69.90
75719;DHT22;64340;48.534;-3.036;2023-04-06T06:58:18;13.10;69.70
75719;DHT22;64340;48.534;-3.036;2023-04-06T07:00:44;13.10;69.70
75719;DHT22;64340;48.534;-3.036;2023-04-06T07:03:10;13.10;69.60
75719;DHT22;64340;48.534;-3.036;2023-04-06T07:05:35;13.10;69.40
75719;DHT22;64340;48.534;-3.036;2023-04-06T07:08:01;13.10;69.30
75719;DHT22;64340;48.534;-3.036;2023-04-06T07:10:27;13.10;69.50
75719;DHT22;64340;48.534;-3.036;2023-04-06T07:12:52;13.00;69.60
75719;DHT22;64340;48.534;-3.036;2023-04-06T07:15:18;13.00;69.60
75719;DHT22;64340;48.534;-3.036;2023-04-06T07:17:44;13.00;69.70
75719;DHT22;64340;48.534;-3.036;2023-04-06T07:20:13;13.00;69.60
75719;DHT22;64340;48.534;-3.036;2023-04-06T07:22:39;13.00;69.70
75719;DHT22;64340;48.534;-3.036;2023-04-06T07:25:05;13.00;69.60
75719;DHT22;64340;48.534;-3.036;2023-04-06T07:27:30;13.00;69.50
75719;DHT22;64340;48.534;-3.036;2023-04-06T07:29:56;13.00;69.60
75719;DHT22;64340;48.534;-3.036;2023-04-06T07:32:22;13.00;69.50
75719;DHT22;64340;48.534;-3.036;2023-04-06T07:34:48;13.00;69.50
75719;DHT22;64340;48.534;-3.036;2023-04-06T07:37:13;13.00;69.50
75719;DHT22;64340;48.534;-3.036;2023-04-06T07:39:39;13.00;69.40
75719;DHT22;64340;48.534;-3.036;2023-04-06T07:42:05;13.00;69.30
75719;DHT22;64340;48.534;-3.036;2023-04-06T07:44:31;13.00;69.20
75719;DHT22;64340;48.534;-3.036;2023-04-06T07:46:57;13.00;69.20
75719;DHT22;64340;48.534;-3.036;2023-04-06T07:49:22;13.00;69.20
75719;DHT22;64340;48.534;-3.036;2023-04-06T07:51:48;13.00;69.10
75719;DHT22;64340;48.534;-3.036;2023-04-06T07:54:14;13.10;69.10
75719;DHT22;64340;48.534;-3.036;2023-04-06T07:56:39;13.10;69.00
75719;DHT22;64340;48.534;-3.036;2023-04-06T07:59:05;13.10;69.20
75719;DHT22;64340;48.534;-3.036;2023-04-06T08:01:31;13.10;69.10
75719;DHT22;64340;48.534;-3.036;2023-04-06T08:03:56;13.00;69.30
75719;DHT22;64340;48.534;-3.036;2023-04-06T08:06:22;13.00;69.20
75719;DHT22;64340;48.534;-3.036;2023-04-06T08:08:48;13.00;69.30
75719;DHT22;64340;48.534;-3.036;2023-04-06T08:11:14;13.00;69.30
75719;DHT22;64340;48.534;-3.036;2023-04-06T08:13:39;13.00;69.30
75719;DHT22;64340;48.534;-3.036;2023-04-06T08:16:05;13.10;69.20
75719;DHT22;64340;48.534;-3.036;2023-04-06T08:18:31;13.10;69.20
75719;DHT22;64340;48.534;-3.036;2023-04-06T08:20:56;13.10;69.20
75719;DHT22;64340;48.534;-3.036;2023-04-06T08:23:22;13.10;69.10
75719;DHT22;64340;48.534;-3.036;2023-04-06T08:25:48;13.10;69.20
75719;DHT22;64340;48.534;-3.036;2023-04-06T08:28:13;13.10;69.20
75719;DHT22;64340;48.534;-3.036;2023-04-06T08:30:40;13.10;69.20
75719;DHT22;64340;48.534;-3.036;2023-04-06T08:33:05;13.10;69.20
75719;DHT22;64340;48.534;-3.036;2023-04-06T08:35:31;13.10;69.20
75719;DHT22;64340;48.534;-3.036;2023-04-06T08:37:57;13.10;69.20
75719;DHT22;64340;48.534;-3.036;2023-04-06T08:40:22;13.20;69.00
75719;DHT22;64340;48.534;-3.036;2023-04-06T08:42:49;13.20;69.10
75719;DHT22;64340;48.534;-3.036;2023-04-06T08:45:15;13.20;69.20
75719;DHT22;64340;48.534;-3.036;2023-04-06T08:47:41;13.20;69.30
75719;DHT22;64340;48.534;-3.036;2023-04-06T08:50:07;13.30;69.30
75719;DHT22;64340;48.534;-3.036;2023-04-06T08:52:33;13.30;69.30
75719;DHT22;64340;48.534;-3.036;2023-04-06T08:54:59;13.30;69.30
75719;DHT22;64340;48.534;-3.036;2023-04-06T08:57:25;13.30;69.20
75719;DHT22;64340;48.534;-3.036;2023-04-06T08:59:51;13.30;69.20
75719;DHT22;64340;48.534;-3.036;2023-04-06T09:02:18;13.30;69.20
75719;DHT22;64340;48.534;-3.036;2023-04-06T09:04:45;13.30;69.10
75719;DHT22;64340;48.534;-3.036;2023-04-06T09:07:11;13.30;69.00
75719;DHT22;64340;48.534;-3.036;2023-04-06T09:09:36;13.30;68.90
75719;DHT22;64340;48.534;-3.036;2023-04-06T09:12:02;13.30;68.70
75719;DHT22;64340;48.534;-3.036;2023-04-06T09:17:00;13.50;68.60
75719;DHT22;64340;48.534;-3.036;2023-04-06T09:19:26;13.50;68.60
75719;DHT22;64340;48.534;-3.036;2023-04-06T09:22:01;13.50;68.50
75719;DHT22;64340;48.534;-3.036;2023-04-06T09:24:26;13.40;68.50
75719;DHT22;64340;48.534;-3.036;2023-04-06T09:26:52;13.40;68.50
75719;DHT22;64340;48.534;-3.036;2023-04-06T09:29:23;13.40;68.40
75719;DHT22;64340;48.534;-3.036;2023-04-06T09:31:51;13.40;68.50
75719;DHT22;64340;48.534;-3.036;2023-04-06T09:34:20;13.50;68.40
75719;DHT22;64340;48.534;-3.036;2023-04-06T09:36:46;13.50;68.30
75719;DHT22;64340;48.534;-3.036;2023-04-06T09:39:12;13.50;68.40
75719;DHT22;64340;48.534;-3.036;2023-04-06T09:41:38;13.50;68.40
75719;DHT22;64340;48.534;-3.036;2023-04-06T09:44:05;13.50;68.20
75719;DHT22;64340;48.534;-3.036;2023-04-06T09:46:32;13.50;68.10
75719;DHT22;64340;48.534;-3.036;2023-04-06T09:48:58;13.60;68.00
75719;DHT22;64340;48.534;-3.036;2023-04-06T09:51:24;13.60;67.60
75719;DHT22;64340;48.534;-3.036;2023-04-06T09:53:54;13.60;67.70
75719;DHT22;64340;48.534;-3.036;2023-04-06T09:56:24;13.60;67.60
75719;DHT22;64340;48.534;-3.036;2023-04-06T09:58:52;13.60;67.80
75719;DHT22;64340;48.534;-3.036;2023-04-06T10:01:19;13.60;67.50
75719;DHT22;64340;48.534;-3.036;2023-04-06T10:03:51;13.70;67.30
75719;DHT22;64340;48.534;-3.036;2023-04-06T10:06:18;13.70;67.30
75719;DHT22;64340;48.534;-3.036;2023-04-06T10:08:47;13.70;67.10
75719;DHT22;64340;48.534;-3.036;2023-04-06T10:11:14;13.70;67.30
75719;DHT22;64340;48.534;-3.036;2023-04-06T10:13:40;13.70;67.30
75719;DHT22;64340;48.534;-3.036;2023-04-06T10:16:07;13.70;67.50
75719;DHT22;64340;48.534;-3.036;2023-04-06T10:18:33;13.70;67.30
75719;DHT22;64340;48.534;-3.036;2023-04-06T10:21:14;13.80;67.30
75719;DHT22;64340;48.534;-3.036;2023-04-06T10:23:49;13.80;67.30
75719;DHT22;64340;48.534;-3.036;2023-04-06T10:26:16;13.90;67.50
75719;DHT22;64340;48.534;-3.036;2023-04-06T10:28:43;13.90;67.20
75719;DHT22;64340;48.534;-3.036;2023-04-06T10:31:09;13.90;67.00
75719;DHT22;64340;48.534;-3.036;2023-04-06T10:33:35;13.90;66.70
75719;DHT22;64340;48.534;-3.036;2023-04-06T10:38:39;14.00;66.50
75719;DHT22;64340;48.534;-3.036;2023-04-06T10:41:06;14.00;66.70
75719;DHT22;64340;48.534;-3.036;2023-04-06T10:43:35;14.10;66.20
75719;DHT22;64340;48.534;-3.036;2023-04-06T10:46:01;14.10;66.40
75719;DHT22;64340;48.534;-3.036;2023-04-06T10:51:06;14.10;66.30
75719;DHT22;64340;48.534;-3.036;2023-04-06T10:53:32;14.10;66.30
75719;DHT22;64340;48.534;-3.036;2023-04-06T10:55:58;14.10;66.10
75719;DHT22;64340;48.534;-3.036;2023-04-06T10:58:25;14.20;65.90
75719;DHT22;64340;48.534;-3.036;2023-04-06T11:00:51;14.20;65.80
75719;DHT22;64340;48.534;-3.036;2023-04-06T11:03:17;14.30;65.50
75719;DHT22;64340;48.534;-3.036;2023-04-06T11:05:46;14.30;65.50
75719;DHT22;64340;48.534;-3.036;2023-04-06T11:08:22;14.30;65.70
75719;DHT22;64340;48.534;-3.036;2023-04-06T11:10:48;14.40;65.70
75719;DHT22;64340;48.534;-3.036;2023-04-06T11:13:14;14.40;65.50
75719;DHT22;64340;48.534;-3.036;2023-04-06T11:15:40;14.40;65.20
75719;DHT22;64340;48.534;-3.036;2023-04-06T11:18:06;14.40;65.20
75719;DHT22;64340;48.534;-3.036;2023-04-06T11:20:31;14.40;65.30
75719;DHT22;64340;48.534;-3.036;2023-04-06T11:22:57;14.50;65.10
75719;DHT22;64340;48.534;-3.036;2023-04-06T11:25:24;14.50;65.10
75719;DHT22;64340;48.534;-3.036;2023-04-06T11:27:51;14.50;65.10
75719;DHT22;64340;48.534;-3.036;2023-04-06T11:30:17;14.50;65.00
75719;DHT22;64340;48.534;-3.036;2023-04-06T11:32:43;14.50;65.00
75719;DHT22;64340;48.534;-3.036;2023-04-06T11:35:19;14.50;65.10
75719;DHT22;64340;48.534;-3.036;2023-04-06T11:37:45;14.50;65.00
75719;DHT22;64340;48.534;-3.036;2023-04-06T11:40:11;14.50;64.90
75719;DHT22;64340;48.534;-3.036;2023-04-06T11:42:36;14.50;64.80
75719;DHT22;64340;48.534;-3.036;2023-04-06T11:45:02;14.60;64.70
75719;DHT22;64340;48.534;-3.036;2023-04-06T11:47:29;14.60;64.60
75719;DHT22;64340;48.534;-3.036;2023-04-06T11:49:55;14.60;64.70
75719;DHT22;64340;48.534;-3.036;2023-04-06T11:52:25;14.60;64.70
75719;DHT22;64340;48.534;-3.036;2023-04-06T11:54:51;14.60;64.60
75719;DHT22;64340;48.534;-3.036;2023-04-06T11:57:18;14.60;64.80
75719;DHT22;64340;48.534;-3.036;2023-04-06T11:59:44;14.60;64.70
75719;DHT22;64340;48.534;-3.036;2023-04-06T12:02:10;14.60;64.70
75719;DHT22;64340;48.534;-3.036;2023-04-06T12:04:36;14.60;64.70
75719;DHT22;64340;48.534;-3.036;2023-04-06T12:07:02;14.60;64.70
75719;DHT22;64340;48.534;-3.036;2023-04-06T12:09:28;14.60;64.60
75719;DHT22;64340;48.534;-3.036;2023-04-06T12:11:54;14.70;64.50
75719;DHT22;64340;48.534;-3.036;2023-04-06T12:14:20;14.80;64.20
75719;DHT22;64340;48.534;-3.036;2023-04-06T12:16:45;14.80;64.30
75719;DHT22;64340;48.534;-3.036;2023-04-06T12:19:11;14.80;64.30
75719;DHT22;64340;48.534;-3.036;2023-04-06T12:21:37;14.80;64.10
75719;DHT22;64340;48.534;-3.036;2023-04-06T12:24:03;14.80;63.80
75719;DHT22;64340;48.534;-3.036;2023-04-06T12:26:29;14.80;63.50
75719;DHT22;64340;48.534;-3.036;2023-04-06T12:28:54;14.90;63.60
75719;DHT22;64340;48.534;-3.036;2023-04-06T12:31:21;14.90;63.40
75719;DHT22;64340;48.534;-3.036;2023-04-06T12:33:47;14.90;63.20
75719;DHT22;64340;48.534;-3.036;2023-04-06T12:36:13;15.00;63.10
75719;DHT22;64340;48.534;-3.036;2023-04-06T12:38:41;14.90;63.00
75719;DHT22;64340;48.534;-3.036;2023-04-06T12:41:07;14.90;63.00
75719;DHT22;64340;48.534;-3.036;2023-04-06T12:43:33;15.00;62.50
75719;DHT22;64340;48.534;-3.036;2023-04-06T12:45:58;15.00;62.60
75719;DHT22;64340;48.534;-3.036;2023-04-06T12:48:25;15.00;62.80
75719;DHT22;64340;48.534;-3.036;2023-04-06T12:51:00;15.00;63.20
75719;DHT22;64340;48.534;-3.036;2023-04-06T12:53:26;15.00;63.10
75719;DHT22;64340;48.534;-3.036;2023-04-06T12:55:55;15.10;62.80
75719;DHT22;64340;48.534;-3.036;2023-04-06T12:58:21;15.00;61.90
75719;DHT22;64340;48.534;-3.036;2023-04-06T13:00:48;15.20;62.60
75719;DHT22;64340;48.534;-3.036;2023-04-06T13:03:14;15.20;62.10
75719;DHT22;64340;48.534;-3.036;2023-04-06T13:05:46;15.10;62.20
75719;DHT22;64340;48.534;-3.036;2023-04-06T13:08:12;15.00;62.30
75719;DHT22;64340;48.534;-3.036;2023-04-06T13:10:42;15.00;62.60
75719;DHT22;64340;48.534;-3.036;2023-04-06T13:13:08;14.90;62.80
75719;DHT22;64340;48.534;-3.036;2023-04-06T13:15:33;14.90;63.10
75719;DHT22;64340;48.534;-3.036;2023-04-06T13:18:02;15.00;62.90
75719;DHT22;64340;48.534;-3.036;2023-04-06T13:20:27;15.00;63.10
75719;DHT22;64340;48.534;-3.036;2023-04-06T13:22:53;14.90;62.20
75719;DHT22;64340;48.534;-3.036;2023-04-06T13:25:19;14.90;63.00
75719;DHT22;64340;48.534;-3.036;2023-04-06T13:27:44;14.90;63.00
75719;DHT22;64340;48.534;-3.036;2023-04-06T13:30:13;14.90;63.00
75719;DHT22;64340;48.534;-3.036;2023-04-06T13:32:38;14.90;63.10
75719;DHT22;64340;48.534;-3.036;2023-04-06T13:35:04;14.90;63.10
75719;DHT22;64340;48.534;-3.036;2023-04-06T13:37:31;14.90;63.20
75719;DHT22;64340;48.534;-3.036;2023-04-06T13:39:57;14.90;63.40
75719;DHT22;64340;48.534;-3.036;2023-04-06T13:42:23;14.90;63.40
75719;DHT22;64340;48.534;-3.036;2023-04-06T13:44:48;14.90;63.30
75719;DHT22;64340;48.534;-3.036;2023-04-06T13:47:16;14.90;63.40
75719;DHT22;64340;48.534;-3.036;2023-04-06T13:49:41;14.90;63.50
75719;DHT22;64340;48.534;-3.036;2023-04-06T13:52:07;14.90;63.50
75719;DHT22;64340;48.534;-3.036;2023-04-06T13:54:35;14.90;63.50
75719;DHT22;64340;48.534;-3.036;2023-04-06T13:57:00;14.90;63.60
75719;DHT22;64340;48.534;-3.036;2023-04-06T13:59:31;14.90;63.60
75719;DHT22;64340;48.534;-3.036;2023-04-06T14:01:57;14.90;63.50
75719;DHT22;64340;48.534;-3.036;2023-04-06T14:04:22;14.90;63.70
75719;DHT22;64340;48.534;-3.036;2023-04-06T14:06:48;14.90;63.70
75719;DHT22;64340;48.534;-3.036;2023-04-06T14:09:13;14.90;63.70
75719;DHT22;64340;48.534;-3.036;2023-04-06T14:11:39;14.90;63.70
75719;DHT22;64340;48.534;-3.036;2023-04-06T14:14:05;14.90;63.40
75719;DHT22;64340;48.534;-3.036;2023-04-06T14:16:31;14.90;63.40
75719;DHT22;64340;48.534;-3.036;2023-04-06T14:18:57;14.90;63.40
75719;DHT22;64340;48.534;-3.036;2023-04-06T14:21:23;14.80;63.40
75719;DHT22;64340;48.534;-3.036;2023-04-06T14:23:48;14.80;63.50
75719;DHT22;64340;48.534;-3.036;2023-04-06T14:26:14;14.80;63.50
75719;DHT22;64340;48.534;-3.036;2023-04-06T14:28:40;14.90;63.60
75719;DHT22;64340;48.534;-3.036;2023-04-06T14:31:10;14.80;63.50
75719;DHT22;64340;48.534;-3.036;2023-04-06T14:33:40;14.80;63.50
75719;DHT22;64340;48.534;-3.036;2023-04-06T14:36:06;14.80;63.40
75719;DHT22;64340;48.534;-3.036;2023-04-06T14:38:32;14.90;63.20
75719;DHT22;64340;48.534;-3.036;2023-04-06T14:40:58;14.90;63.20
75719;DHT22;64340;48.534;-3.036;2023-04-06T14:43:24;14.90;63.30
75719;DHT22;64340;48.534;-3.036;2023-04-06T14:45:50;14.90;63.20
75719;DHT22;64340;48.534;-3.036;2023-04-06T14:48:16;14.90;63.20
75719;DHT22;64340;48.534;-3.036;2023-04-06T14:50:51;14.90;63.20
75719;DHT22;64340;48.534;-3.036;2023-04-06T14:53:18;14.90;63.30
75719;DHT22;64340;48.534;-3.036;2023-04-06T14:55:44;14.90;63.20
75719;DHT22;64340;48.534;-3.036;2023-04-06T14:58:09;14.90;63.30
75719;DHT22;64340;48.534;-3.036;2023-04-06T15:00:36;14.90;63.30
75719;DHT22;64340;48.534;-3.036;2023-04-06T15:03:02;14.90;63.40
75719;DHT22;64340;48.534;-3.036;2023-04-06T15:05:27;14.80;63.40
75719;DHT22;64340;48.534;-3.036;2023-04-06T15:07:53;14.90;63.50
75719;DHT22;64340;48.534;-3.036;2023-04-06T15:10:18;14.90;63.40
75719;DHT22;64340;48.534;-3.036;2023-04-06T15:12:44;14.80;63.50
75719;DHT22;64340;48.534;-3.036;2023-04-06T15:15:10;14.80;63.50